createdAt,value
2022-12-13T00:01:16.908Z,19.87
2022-12-13T00:03:44.039Z,19.10
2022-12-13T00:06:12.417Z,20.53
2022-12-13T00:08:39.637Z,19.80
2022-12-13T00:11:08.398Z,18.77
2022-12-13T00:13:36.028Z,19.13
2022-12-13T00:16:05.503Z,18.00
2022-12-13T00:18:33.528Z,20.03
2022-12-13T00:21:03.933Z,19.30
2022-12-13T00:23:30.594Z,21.10
2022-12-13T00:26:05.983Z,19.67
2022-12-13T00:28:33.235Z,20.20
2022-12-13T00:31:18.940Z,19.97
2022-12-13T00:33:48.954Z,18.80
2022-12-13T00:36:16.350Z,18.93
2022-12-13T00:38:43.024Z,20.17
2022-12-13T00:41:19.489Z,18.60
2022-12-13T00:43:46.804Z,18.93
2022-12-13T00:46:22.373Z,19.93
2022-12-13T00:48:51.218Z,19.40
2022-12-13T00:51:18.820Z,19.80
2022-12-13T00:53:45.996Z,20.80
2022-12-13T00:56:14.934Z,20.77
2022-12-13T00:58:43.366Z,18.53
2022-12-13T01:01:15.100Z,19.43
2022-12-13T01:03:42.554Z,20.63
2022-12-13T01:06:16.133Z,19.40
2022-12-13T01:08:44.063Z,19.60
2022-12-13T01:11:11.512Z,19.60
2022-12-13T01:13:38.860Z,19.80
2022-12-13T01:16:08.481Z,21.10
2022-12-13T01:18:35.846Z,20.57
2022-12-13T01:21:10.219Z,19.00
2022-12-13T01:23:37.040Z,20.00
2022-12-13T01:26:05.792Z,18.93
2022-12-13T01:28:32.718Z,19.73
2022-12-13T01:31:02.299Z,20.90
2022-12-13T01:33:29.889Z,21.90
2022-12-13T01:36:00.067Z,19.70
2022-12-13T01:38:26.757Z,19.17
2022-12-13T01:40:59.364Z,19.93
2022-12-13T01:43:46.989Z,19.60
2022-12-13T01:46:15.797Z,20.30
2022-12-13T01:49:20.330Z,19.67
2022-12-13T01:51:52.509Z,21.20
2022-12-13T01:54:25.198Z,19.97
2022-12-13T01:57:02.570Z,19.20
2022-12-13T01:59:29.718Z,19.40
2022-12-13T02:02:00.924Z,18.47
2022-12-13T02:04:54.361Z,19.90
2022-12-13T02:07:26.710Z,19.53
2022-12-13T02:09:57.453Z,19.60
2022-12-13T02:12:30.648Z,20.50
2022-12-13T02:15:04.118Z,19.53
2022-12-13T02:18:05.599Z,20.20
2022-12-13T02:21:09.647Z,19.17
2022-12-13T02:24:10.457Z,20.67
2022-12-13T02:26:53.959Z,19.07
2022-12-13T02:29:38.392Z,18.83
2022-12-13T02:32:27.472Z,19.03
2022-12-13T02:35:30.541Z,21.43
2022-12-13T02:38:26.968Z,19.97
2022-12-13T02:41:16.257Z,19.10
2022-12-13T02:44:01.731Z,20.90
2022-12-13T02:46:32.742Z,19.63
2022-12-13T02:49:01.647Z,20.10
2022-12-13T02:51:30.523Z,19.77
2022-12-13T02:53:57.535Z,18.93
2022-12-13T02:56:24.497Z,20.10
2022-12-13T02:58:55.092Z,20.40
2022-12-13T03:01:40.333Z,18.70
2022-12-13T03:05:03.858Z,19.07
2022-12-13T03:07:45.100Z,18.77
2022-12-13T03:10:29.303Z,21.20
2022-12-13T03:13:27.309Z,19.43
2022-12-13T03:15:58.935Z,19.70
2022-12-13T03:18:28.117Z,19.73
2022-12-13T03:20:58.701Z,20.03
2022-12-13T03:23:26.052Z,19.77
2022-12-13T03:26:07.217Z,19.83
2022-12-13T03:28:34.049Z,19.80
2022-12-13T03:31:00.784Z,19.40
2022-12-13T03:33:27.688Z,18.20
2022-12-13T03:35:54.443Z,19.50
2022-12-13T03:38:22.947Z,19.50
2022-12-13T03:40:57.152Z,18.27
2022-12-13T03:43:24.425Z,18.47
2022-12-13T03:45:52.450Z,19.07
2022-12-13T03:48:21.685Z,18.00
2022-12-13T03:50:51.086Z,18.97
2022-12-13T03:53:23.301Z,19.60
2022-12-13T03:56:01.182Z,18.60
2022-12-13T03:58:35.194Z,19.07
2022-12-13T04:01:07.715Z,18.20
2022-12-13T04:03:35.139Z,17.93
2022-12-13T04:06:01.973Z,19.40
2022-12-13T04:08:28.926Z,20.77
2022-12-13T04:10:55.673Z,19.63
2022-12-13T04:13:34.452Z,18.40
2022-12-13T04:16:02.335Z,19.57
2022-12-13T04:18:29.297Z,19.97
2022-12-13T04:20:57.490Z,19.70
2022-12-13T04:23:24.601Z,20.67
2022-12-13T04:25:51.707Z,20.67
2022-12-13T04:28:22.053Z,20.80
2022-12-13T04:30:54.219Z,20.67
2022-12-13T04:33:24.492Z,19.37
2022-12-13T04:35:51.608Z,21.90
2022-12-13T04:38:19.211Z,19.50
2022-12-13T04:40:46.418Z,21.07
2022-12-13T04:43:13.263Z,21.50
2022-12-13T04:45:40.167Z,21.00
2022-12-13T04:48:07.852Z,20.30
2022-12-13T04:50:35.398Z,20.07
2022-12-13T04:53:02.238Z,17.80
2022-12-13T04:55:29.079Z,20.67
2022-12-13T04:57:55.761Z,19.67
2022-12-13T05:00:23.161Z,19.20
2022-12-13T05:02:50.300Z,20.47
2022-12-13T05:05:17.636Z,20.73
2022-12-13T05:07:44.583Z,20.47
2022-12-13T05:10:12.087Z,21.23
2022-12-13T05:12:39.196Z,20.30
2022-12-13T05:15:07.087Z,20.03
2022-12-13T05:17:34.554Z,18.60
2022-12-13T05:20:01.295Z,20.93
2022-12-13T05:22:28.057Z,18.30
2022-12-13T05:24:54.825Z,19.57
2022-12-13T05:27:24.724Z,18.20
2022-12-13T05:30:03.517Z,19.07
2022-12-13T05:32:43.692Z,20.43
2022-12-13T05:35:23.012Z,18.50
2022-12-13T05:37:54.375Z,20.77
2022-12-13T05:40:23.224Z,19.00
2022-12-13T05:42:49.944Z,19.43
2022-12-13T05:45:18.830Z,19.43
2022-12-13T05:47:46.099Z,21.47
2022-12-13T05:50:14.936Z,21.37
2022-12-13T05:52:43.035Z,21.93
2022-12-13T05:55:11.063Z,20.77
2022-12-13T05:57:38.388Z,21.77
2022-12-13T06:00:07.617Z,20.00
2022-12-13T06:02:54.662Z,21.10
2022-12-13T06:05:21.605Z,20.67
2022-12-13T06:07:52.206Z,20.80
2022-12-13T06:10:23.649Z,20.37
2022-12-13T06:12:50.625Z,20.97
2022-12-13T06:15:22.219Z,23.43
2022-12-13T06:17:49.531Z,22.23
2022-12-13T06:20:23.615Z,19.83
2022-12-13T06:22:52.487Z,21.13
2022-12-13T06:25:30.539Z,18.73
2022-12-13T06:28:01.769Z,19.83
2022-12-13T06:30:32.268Z,21.20
2022-12-13T06:32:59.277Z,19.90
2022-12-13T06:35:28.027Z,20.13
2022-12-13T06:38:00.931Z,20.40
2022-12-13T06:40:30.480Z,19.57
2022-12-13T06:42:57.530Z,20.93
2022-12-13T06:45:24.827Z,20.13
2022-12-13T06:47:51.698Z,18.83
2022-12-13T06:50:18.463Z,19.57
2022-12-13T06:52:46.835Z,19.30
2022-12-13T06:55:13.992Z,19.17
2022-12-13T06:57:41.529Z,18.00
2022-12-13T07:00:10.083Z,18.83
2022-12-13T07:02:38.598Z,19.17
2022-12-13T07:05:06.210Z,17.87
2022-12-13T07:07:33.136Z,18.37
2022-12-13T07:10:00.084Z,17.77
2022-12-13T07:12:26.826Z,18.97
2022-12-13T07:14:53.667Z,17.97
2022-12-13T07:17:31.933Z,17.60
2022-12-13T07:20:03.001Z,18.87
2022-12-13T07:22:34.848Z,19.57
2022-12-13T07:25:03.485Z,19.37
2022-12-13T07:27:30.176Z,18.43
2022-12-13T07:29:57.916Z,18.97
2022-12-13T07:32:24.798Z,19.00
2022-12-13T07:34:51.585Z,20.07
2022-12-13T07:37:30.046Z,19.13
2022-12-13T07:40:03.490Z,20.47
2022-12-13T07:42:31.394Z,20.23
2022-12-13T07:44:58.117Z,19.60
2022-12-13T07:47:29.626Z,19.17
2022-12-13T07:49:56.567Z,19.37
2022-12-13T07:52:23.567Z,19.07
2022-12-13T07:54:50.565Z,19.80
2022-12-13T07:57:17.511Z,19.13
2022-12-13T07:59:44.243Z,20.00
2022-12-13T08:02:13.405Z,18.87
2022-12-13T08:04:42.256Z,19.30
2022-12-13T08:07:09.813Z,18.80
2022-12-13T08:09:37.412Z,19.43
2022-12-13T08:12:05.488Z,18.27
2022-12-13T08:14:32.519Z,18.20
2022-12-13T08:16:59.309Z,17.60
2022-12-13T08:19:26.225Z,17.13
2022-12-13T08:21:56.291Z,16.57
2022-12-13T08:24:26.141Z,17.80
2022-12-13T08:26:52.971Z,17.97
2022-12-13T08:29:22.900Z,18.13
2022-12-13T08:32:01.717Z,17.40
2022-12-13T08:34:28.674Z,17.40
2022-12-13T08:37:02.126Z,17.40
2022-12-13T08:39:35.673Z,20.17
2022-12-13T08:42:17.044Z,18.63
2022-12-13T08:44:52.888Z,18.57
2022-12-13T08:47:27.175Z,16.83
2022-12-13T08:50:01.997Z,18.83
2022-12-13T08:52:30.521Z,18.50
2022-12-13T08:54:57.294Z,18.00
2022-12-13T08:57:24.034Z,17.83
2022-12-13T08:59:50.765Z,17.93
2022-12-13T09:02:17.784Z,17.83
2022-12-13T09:04:45.579Z,17.67
2022-12-13T09:07:12.861Z,18.90
2022-12-13T09:09:39.611Z,18.83
2022-12-13T09:12:10.234Z,16.67
2022-12-13T09:14:38.320Z,17.30
2022-12-13T09:17:24.215Z,16.40
2022-12-13T09:19:58.168Z,16.97
2022-12-13T09:22:33.618Z,16.90
2022-12-13T09:25:02.356Z,16.97
2022-12-13T09:27:30.837Z,16.10
2022-12-13T09:30:08.253Z,16.37
2022-12-13T09:32:35.003Z,16.60
2022-12-13T09:35:02.011Z,17.07
2022-12-13T09:37:29.724Z,16.10
2022-12-13T09:39:56.469Z,14.50
2022-12-13T09:42:30.234Z,16.90
2022-12-13T09:45:03.989Z,16.20
2022-12-13T09:47:36.062Z,16.63
2022-12-13T09:50:14.783Z,16.07
2022-12-13T09:52:43.603Z,15.87
2022-12-13T09:55:29.311Z,15.67
2022-12-13T09:57:58.400Z,14.77
2022-12-13T10:00:33.901Z,15.43
2022-12-13T10:03:01.305Z,15.90
2022-12-13T10:05:40.333Z,16.40
2022-12-13T10:08:20.504Z,15.27
2022-12-13T10:10:50.589Z,14.67
2022-12-13T10:13:21.869Z,15.07
2022-12-13T10:15:54.898Z,14.50
2022-12-13T10:18:37.421Z,15.00
2022-12-13T10:21:17.934Z,15.37
2022-12-13T10:24:22.640Z,14.40
2022-12-13T10:26:37.721Z,14.97
2022-12-13T10:29:06.123Z,15.33
2022-12-13T10:31:41.936Z,14.80
2022-12-13T10:34:35.604Z,15.57
2022-12-13T10:37:23.912Z,13.60
2022-12-13T10:39:50.802Z,13.50
2022-12-13T10:42:24.319Z,15.17
2022-12-13T10:45:16.173Z,16.33
2022-12-13T10:47:50.975Z,13.13
2022-12-13T10:50:29.814Z,14.23
2022-12-13T10:52:58.800Z,14.87
2022-12-13T10:55:32.118Z,14.67
2022-12-13T10:58:02.172Z,14.27
2022-12-13T11:00:39.889Z,14.00
2022-12-13T11:03:10.012Z,13.23
2022-12-13T11:05:38.229Z,13.97
2022-12-13T11:08:16.808Z,14.57
2022-12-13T11:10:43.846Z,13.93
2022-12-13T11:13:34.115Z,11.53
2022-12-13T11:16:01.912Z,12.57
2022-12-13T11:18:35.061Z,12.17
2022-12-13T11:21:04.037Z,12.00
2022-12-13T11:23:35.530Z,11.53
2022-12-13T11:26:09.259Z,12.97
2022-12-13T11:28:42.292Z,12.27
2022-12-13T11:31:36.959Z,11.93
2022-12-13T11:34:09.894Z,11.23
2022-12-13T11:37:06.472Z,11.80
2022-12-13T11:39:38.071Z,10.33
2022-12-13T11:42:28.707Z,11.23
2022-12-13T11:45:22.099Z,11.00
2022-12-13T11:48:09.451Z,11.40
2022-12-13T11:50:41.066Z,11.37
2022-12-13T11:53:28.560Z,11.47
2022-12-13T11:56:05.186Z,10.60
2022-12-13T11:59:16.266Z,11.60
2022-12-13T12:01:55.795Z,10.83
2022-12-13T12:04:39.827Z,11.17
2022-12-13T12:07:31.839Z,10.97
2022-12-13T12:10:18.343Z,11.70
2022-12-13T12:12:55.525Z,9.70
2022-12-13T12:15:27.593Z,11.33
2022-12-13T12:17:56.004Z,11.90
2022-12-13T12:20:43.237Z,10.13
2022-12-13T12:23:46.367Z,11.77
2022-12-13T12:26:18.848Z,11.80
2022-12-13T12:29:01.797Z,10.70
2022-12-13T12:31:50.615Z,11.00
2022-12-13T12:34:44.682Z,11.30
2022-12-13T12:37:19.157Z,10.53
2022-12-13T12:40:17.531Z,11.33
2022-12-13T12:43:26.995Z,11.07
2022-12-13T12:46:06.381Z,10.13
2022-12-13T12:48:56.511Z,11.17
2022-12-13T12:51:41.225Z,11.27
2022-12-13T12:54:32.212Z,11.00
2022-12-13T12:57:07.818Z,12.20
2022-12-13T12:59:40.661Z,10.00
2022-12-13T13:02:48.717Z,12.83
2022-12-13T13:05:30.176Z,8.87
2022-12-13T13:08:20.252Z,9.90
2022-12-13T13:10:50.213Z,10.50
2022-12-13T13:13:48.689Z,10.30
2022-12-13T13:16:27.815Z,9.90
2022-12-13T13:18:56.072Z,9.07
2022-12-13T13:21:31.782Z,9.43
2022-12-13T13:24:01.794Z,9.10
2022-12-13T13:26:36.374Z,10.80
2022-12-13T13:29:27.570Z,9.40
2022-12-13T13:32:28.661Z,10.03
2022-12-13T13:35:28.772Z,8.70
2022-12-13T13:37:55.950Z,9.33
2022-12-13T13:40:36.706Z,10.73
2022-12-13T13:43:06.396Z,9.40
2022-12-13T13:45:57.733Z,19.60
2022-12-13T13:48:35.595Z,15.90
2022-12-13T13:51:30.094Z,10.40
2022-12-13T13:54:30.093Z,10.63
2022-12-13T13:58:00.311Z,10.50
2022-12-13T14:00:42.266Z,10.70
2022-12-13T14:03:46.389Z,10.87
2022-12-13T14:06:21.973Z,9.20
2022-12-13T14:09:30.102Z,10.10
2022-12-13T14:12:34.001Z,10.70
2022-12-13T14:15:25.382Z,11.60
2022-12-13T14:18:21.330Z,10.37
2022-12-13T14:20:51.621Z,10.17
2022-12-13T14:23:37.069Z,11.20
2022-12-13T14:26:41.670Z,10.60
2022-12-13T14:29:18.751Z,11.87
2022-12-13T14:31:47.867Z,11.47
2022-12-13T14:34:22.815Z,14.00
2022-12-13T14:37:04.363Z,11.53
2022-12-13T14:39:34.109Z,11.00
2022-12-13T14:42:02.720Z,11.97
2022-12-13T14:44:35.959Z,11.83
2022-12-13T14:47:06.232Z,11.47
2022-12-13T14:49:36.063Z,11.33
2022-12-13T14:52:09.544Z,10.90
2022-12-13T14:55:22.412Z,10.00
2022-12-13T14:57:54.631Z,12.30
2022-12-13T15:00:26.401Z,9.83
2022-12-13T15:02:56.351Z,11.87
2022-12-13T15:05:29.512Z,11.10
2022-12-13T15:07:57.188Z,11.57
2022-12-13T15:10:32.646Z,10.10
2022-12-13T15:12:59.506Z,10.73
2022-12-13T15:15:31.425Z,13.80
2022-12-13T15:18:25.215Z,24.33
2022-12-13T15:20:54.430Z,10.87
2022-12-13T15:23:21.178Z,10.80
2022-12-13T15:25:55.691Z,11.00
2022-12-13T15:28:24.670Z,9.23
2022-12-13T15:30:52.010Z,10.90
2022-12-13T15:33:29.061Z,11.43
2022-12-13T15:36:15.590Z,9.97
2022-12-13T15:38:57.128Z,11.50
2022-12-13T15:41:41.653Z,11.00
2022-12-13T15:44:19.553Z,10.00
2022-12-13T15:46:48.767Z,9.77
2022-12-13T15:49:50.433Z,9.93
2022-12-13T15:52:17.064Z,9.30
2022-12-13T15:55:04.368Z,8.60
2022-12-13T15:57:34.378Z,9.73
2022-12-13T16:00:19.411Z,10.70
2022-12-13T16:03:13.330Z,12.57
2022-12-13T16:05:54.841Z,9.63
2022-12-13T16:08:33.533Z,8.80
2022-12-13T16:11:00.741Z,9.30
2022-12-13T16:13:30.492Z,9.07
2022-12-13T16:16:28.087Z,9.90
2022-12-13T16:18:59.225Z,8.43
2022-12-13T16:21:44.735Z,9.20
2022-12-13T16:24:11.842Z,9.83
2022-12-13T16:26:44.770Z,8.70
2022-12-13T16:29:16.433Z,11.10
2022-12-13T16:31:46.715Z,9.67
2022-12-13T16:34:14.143Z,9.70
2022-12-13T16:36:40.872Z,8.13
2022-12-13T16:39:10.881Z,9.00
2022-12-13T16:41:42.899Z,8.60
2022-12-13T16:44:16.228Z,8.33
2022-12-13T16:47:18.292Z,7.80
2022-12-13T16:49:30.687Z,8.10
2022-12-13T16:51:57.696Z,8.07
2022-12-13T16:54:25.466Z,9.17
2022-12-13T16:56:53.976Z,7.10
2022-12-13T16:59:23.325Z,9.10
2022-12-13T17:01:51.181Z,8.30
2022-12-13T17:04:22.557Z,8.30
2022-12-13T17:06:55.135Z,8.30
2022-12-13T17:09:24.024Z,6.70
2022-12-13T17:11:50.887Z,7.93
2022-12-13T17:14:17.746Z,7.93
2022-12-13T17:16:44.717Z,7.70
2022-12-13T17:19:14.619Z,7.50
2022-12-13T17:21:41.504Z,7.67
2022-12-13T17:24:08.423Z,7.30
2022-12-13T17:26:35.420Z,7.70
2022-12-13T17:29:02.206Z,7.57
2022-12-13T17:31:35.353Z,8.03
2022-12-13T17:34:03.818Z,12.80
2022-12-13T17:36:31.581Z,7.73
2022-12-13T17:38:59.151Z,7.47
2022-12-13T17:41:26.286Z,8.73
2022-12-13T17:43:53.024Z,7.47
2022-12-13T17:46:19.900Z,8.10
2022-12-13T17:48:47.140Z,8.13
2022-12-13T17:51:14.792Z,7.83
2022-12-13T17:53:43.795Z,7.80
2022-12-13T17:56:15.017Z,7.47
2022-12-13T17:58:42.808Z,7.20
2022-12-13T18:01:11.953Z,6.83
2022-12-13T18:03:38.822Z,8.00
2022-12-13T18:06:07.201Z,7.40
2022-12-13T18:08:42.434Z,6.73
2022-12-13T18:11:31.726Z,6.70
2022-12-13T18:13:56.387Z,7.33
2022-12-13T18:16:30.311Z,7.10
2022-12-13T18:18:58.967Z,8.53
2022-12-13T18:21:26.869Z,8.07
2022-12-13T18:23:56.156Z,8.03
2022-12-13T18:26:24.236Z,7.30
2022-12-13T18:28:51.697Z,7.60
2022-12-13T18:31:22.247Z,8.73
2022-12-13T18:33:50.511Z,7.07
2022-12-13T18:36:18.250Z,8.10
2022-12-13T18:38:45.145Z,8.50
2022-12-13T18:41:15.431Z,8.33
2022-12-13T18:43:43.373Z,7.30
2022-12-13T18:46:12.443Z,8.27
2022-12-13T18:48:39.698Z,7.63
2022-12-13T18:51:08.018Z,7.60
2022-12-13T18:53:37.348Z,9.50
2022-12-13T18:56:16.116Z,8.17
2022-12-13T18:58:45.458Z,7.63
2022-12-13T19:01:13.655Z,7.20
2022-12-13T19:03:41.922Z,9.60
2022-12-13T19:06:08.758Z,11.37
2022-12-13T19:08:36.466Z,8.03
2022-12-13T19:11:04.254Z,8.57
2022-12-13T19:13:32.623Z,7.70
2022-12-13T19:16:06.438Z,7.60
2022-12-13T19:18:34.038Z,7.60
2022-12-13T19:21:01.067Z,7.30
2022-12-13T19:23:28.780Z,7.07
2022-12-13T19:25:56.093Z,7.33
2022-12-13T19:28:23.137Z,7.30
2022-12-13T19:30:50.041Z,7.70
2022-12-13T19:33:17.432Z,8.50
2022-12-13T19:35:46.658Z,7.70
2022-12-13T19:38:13.881Z,8.37
2022-12-13T19:40:42.146Z,8.53
2022-12-13T19:43:10.452Z,8.50
2022-12-13T19:45:37.263Z,8.03
2022-12-13T19:48:04.384Z,8.10
2022-12-13T19:50:31.524Z,8.30
2022-12-13T19:52:58.213Z,7.80
2022-12-13T19:55:24.951Z,7.70
2022-12-13T19:57:51.773Z,8.10
2022-12-13T20:00:18.943Z,9.13
2022-12-13T20:02:45.825Z,8.83
2022-12-13T20:05:12.750Z,8.30
2022-12-13T20:07:39.728Z,7.20
2022-12-13T20:10:07.418Z,7.70
2022-12-13T20:12:39.034Z,8.23
2022-12-13T20:15:08.561Z,8.57
2022-12-13T20:17:35.831Z,7.67
2022-12-13T20:20:04.065Z,7.73
2022-12-13T20:22:31.795Z,7.33
2022-12-13T20:24:58.651Z,8.90
2022-12-13T20:27:25.748Z,8.70
2022-12-13T20:29:52.529Z,7.70
2022-12-13T20:32:21.335Z,7.90
2022-12-13T20:34:53.217Z,9.43
2022-12-13T20:37:21.643Z,7.27
2022-12-13T20:39:48.333Z,7.20
2022-12-13T20:42:15.253Z,8.50
2022-12-13T20:44:42.016Z,8.43
2022-12-13T20:47:08.774Z,8.67
2022-12-13T20:49:35.559Z,8.47
2022-12-13T20:52:02.650Z,8.00
2022-12-13T20:54:29.357Z,9.50
2022-12-13T20:56:56.134Z,8.73
2022-12-13T20:59:22.942Z,7.70
2022-12-13T21:01:49.783Z,8.37
2022-12-13T21:04:16.847Z,7.80
2022-12-13T21:06:43.718Z,7.97
2022-12-13T21:09:11.824Z,7.60
2022-12-13T21:11:46.992Z,8.07
2022-12-13T21:14:23.422Z,8.03
2022-12-13T21:16:58.477Z,9.03
2022-12-13T21:19:27.949Z,7.43
2022-12-13T21:21:56.276Z,7.80
2022-12-13T21:24:25.405Z,8.67
2022-12-13T21:26:53.078Z,8.17
2022-12-13T21:29:19.930Z,8.37
2022-12-13T21:31:50.079Z,7.53
2022-12-13T21:34:17.869Z,7.73
2022-12-13T21:36:46.646Z,8.00
2022-12-13T21:39:15.717Z,8.30
2022-12-13T21:41:43.123Z,8.30
2022-12-13T21:44:11.597Z,8.37
2022-12-13T21:49:24.889Z,8.67
2022-12-13T21:51:51.610Z,8.20
2022-12-13T21:54:18.388Z,8.70
2022-12-13T21:57:03.769Z,8.60
2022-12-13T21:59:30.920Z,7.50
2022-12-13T22:02:13.501Z,8.43
2022-12-13T22:04:46.051Z,7.70
2022-12-13T22:07:15.927Z,7.50
2022-12-13T22:09:42.795Z,7.50
2022-12-13T22:12:21.428Z,8.03
2022-12-13T22:14:48.763Z,7.53
2022-12-13T22:17:15.942Z,8.17
2022-12-13T22:19:42.653Z,8.23
2022-12-13T22:22:09.395Z,7.63
2022-12-13T22:24:36.123Z,7.20
2022-12-13T22:27:03.154Z,7.50
2022-12-13T22:29:29.851Z,6.67
2022-12-13T22:31:56.644Z,7.17
2022-12-13T22:34:23.431Z,8.87
2022-12-13T22:36:50.148Z,9.30
2022-12-13T22:39:18.904Z,6.70
2022-12-13T22:41:46.843Z,8.03
2022-12-13T22:44:14.676Z,7.20
2022-12-13T22:46:42.215Z,7.20
2022-12-13T22:49:10.141Z,8.50
2022-12-13T22:51:37.189Z,6.70
2022-12-13T22:54:04.464Z,6.30
2022-12-13T22:56:31.472Z,6.53
2022-12-13T22:59:01.857Z,7.00
2022-12-13T23:01:33.884Z,6.70
2022-12-13T23:04:01.049Z,6.27
2022-12-13T23:06:31.497Z,6.97
2022-12-13T23:09:00.716Z,6.90
2022-12-13T23:11:47.975Z,6.60
2022-12-13T23:14:18.043Z,6.17
2022-12-13T23:16:45.105Z,9.57
2022-12-13T23:22:02.661Z,7.00
2022-12-13T23:24:29.378Z,6.03
2022-12-13T23:26:56.178Z,6.17
2022-12-13T23:29:22.892Z,6.70
2022-12-13T23:31:49.637Z,6.53
2022-12-13T23:34:16.545Z,6.40
2022-12-13T23:36:43.258Z,5.67
2022-12-13T23:39:11.585Z,6.50
2022-12-13T23:41:38.483Z,5.77
2022-12-13T23:44:05.456Z,5.40
2022-12-13T23:46:34.593Z,5.60
2022-12-13T23:49:04.653Z,6.33
2022-12-13T23:51:32.219Z,6.00
2022-12-13T23:53:59.182Z,5.90
2022-12-13T23:56:25.995Z,6.23
2022-12-13T23:58:52.732Z,5.70
